createdAt,value
2023-05-12T00:01:28.867Z,3.30
2023-05-12T00:04:00.852Z,4.47
2023-05-12T00:06:32.902Z,4.20
2023-05-12T00:09:06.135Z,2.57
2023-05-12T00:11:38.501Z,4.63
2023-05-12T00:14:10.531Z,3.10
2023-05-12T00:16:42.323Z,3.20
2023-05-12T00:19:14.032Z,3.17
2023-05-12T00:21:45.950Z,3.80
2023-05-12T00:24:17.651Z,3.23
2023-05-12T00:26:49.366Z,3.70
2023-05-12T00:29:21.091Z,4.53
2023-05-12T00:31:52.880Z,3.33
2023-05-12T00:34:24.623Z,3.33
2023-05-12T00:36:56.871Z,4.97
2023-05-12T00:39:28.602Z,3.80
2023-05-12T00:42:00.390Z,3.07
2023-05-12T00:44:32.162Z,3.73
2023-05-12T00:47:05.063Z,3.20
2023-05-12T00:49:36.952Z,4.37
2023-05-12T00:52:08.764Z,5.63
2023-05-12T00:54:42.239Z,5.80
2023-05-12T00:57:14.601Z,4.10
2023-05-12T00:59:46.290Z,4.23
2023-05-12T01:02:18.244Z,4.10
2023-05-12T01:04:51.119Z,4.30
2023-05-12T01:07:24.655Z,4.10
2023-05-12T01:09:56.769Z,6.83
2023-05-12T01:12:29.592Z,5.93
2023-05-12T01:15:01.503Z,4.90
2023-05-12T01:17:35.620Z,6.67
2023-05-12T01:20:08.954Z,4.43
2023-05-12T01:22:41.895Z,3.93
2023-05-12T01:25:15.688Z,4.27
2023-05-12T01:27:49.530Z,4.13
2023-05-12T01:30:23.086Z,4.77
2023-05-12T01:32:55.658Z,7.23
2023-05-12T01:35:27.426Z,5.43
2023-05-12T01:38:04.916Z,5.63
2023-05-12T01:40:40.118Z,5.53
2023-05-12T01:43:12.830Z,4.80
2023-05-12T01:45:44.571Z,5.80
2023-05-12T01:48:16.369Z,4.07
2023-05-12T01:50:48.140Z,3.97
2023-05-12T01:53:24.640Z,12.47
2023-05-12T01:55:56.474Z,5.23
2023-05-12T01:58:29.904Z,4.90
2023-05-12T02:01:03.481Z,4.83
2023-05-12T02:03:35.274Z,4.73
2023-05-12T02:06:07.112Z,6.97
2023-05-12T02:08:39.180Z,5.30
2023-05-12T02:11:11.450Z,5.37
2023-05-12T02:13:46.405Z,6.93
2023-05-12T02:16:18.235Z,4.13
2023-05-12T02:18:50.568Z,5.43
2023-05-12T02:21:22.485Z,6.30
2023-05-12T02:23:56.563Z,7.13
2023-05-12T02:26:28.267Z,5.13
2023-05-12T02:28:59.992Z,5.30
2023-05-12T02:31:31.825Z,5.30
2023-05-12T02:34:06.432Z,5.47
2023-05-12T02:36:38.544Z,6.90
2023-05-12T02:39:10.658Z,6.57
2023-05-12T02:41:42.576Z,5.13
2023-05-12T02:44:16.540Z,5.57
2023-05-12T02:46:48.397Z,5.30
2023-05-12T02:49:20.106Z,6.17
2023-05-12T02:51:51.825Z,5.83
2023-05-12T02:54:23.610Z,5.67
2023-05-12T02:56:58.022Z,6.27
2023-05-12T02:59:30.641Z,5.40
2023-05-12T03:02:02.445Z,5.23
2023-05-12T03:04:34.209Z,6.03
2023-05-12T03:07:07.243Z,7.90
2023-05-12T03:09:39.522Z,6.13
2023-05-12T03:12:11.200Z,5.60
2023-05-12T03:14:42.890Z,5.17
2023-05-12T03:17:14.707Z,5.83
2023-05-12T03:19:46.511Z,4.83
2023-05-12T03:22:18.338Z,5.23
2023-05-12T03:24:50.048Z,5.10
2023-05-12T03:27:21.900Z,4.93
2023-05-12T03:29:53.597Z,5.10
2023-05-12T03:32:25.508Z,4.83
2023-05-12T03:34:57.261Z,6.00
2023-05-12T03:37:29.189Z,6.23
2023-05-12T03:40:01.228Z,5.37
2023-05-12T03:42:32.993Z,5.00
2023-05-12T03:45:06.996Z,5.57
2023-05-12T03:47:40.566Z,8.67
2023-05-12T03:50:12.837Z,6.70
2023-05-12T03:52:44.772Z,6.30
2023-05-12T03:55:16.509Z,5.03
2023-05-12T03:57:49.224Z,5.50
2023-05-12T04:00:21.582Z,6.23
2023-05-12T04:02:53.459Z,6.63
2023-05-12T04:05:25.293Z,4.80
2023-05-12T04:07:57.153Z,4.17
2023-05-12T04:10:28.838Z,4.90
2023-05-12T04:13:02.052Z,4.80
2023-05-12T04:15:35.788Z,5.50
2023-05-12T04:18:08.017Z,6.60
2023-05-12T04:20:39.731Z,4.73
2023-05-12T04:23:11.577Z,8.03
2023-05-12T04:25:43.322Z,5.10
2023-05-12T04:28:15.289Z,5.53
2023-05-12T04:30:47.025Z,4.60
2023-05-12T04:33:19.038Z,5.47
2023-05-12T04:35:56.209Z,5.00
2023-05-12T04:38:28.050Z,4.80
2023-05-12T04:41:00.664Z,4.87
2023-05-12T04:46:07.454Z,5.40
2023-05-12T04:48:41.953Z,6.53
2023-05-12T04:51:13.674Z,4.47
2023-05-12T04:53:45.816Z,8.20
2023-05-12T04:56:17.611Z,7.20
2023-05-12T04:58:50.042Z,9.30
2023-05-12T05:01:21.838Z,9.47
2023-05-12T05:03:53.712Z,9.53
2023-05-12T05:06:25.896Z,5.97
2023-05-12T05:08:58.181Z,8.77
2023-05-12T05:11:30.237Z,5.53
2023-05-12T05:14:02.052Z,6.93
2023-05-12T05:16:34.200Z,5.63
2023-05-12T05:19:09.385Z,5.97
2023-05-12T05:21:51.090Z,6.23
2023-05-12T05:24:22.775Z,5.33
2023-05-12T05:26:54.451Z,6.53
2023-05-12T05:29:26.670Z,6.50
2023-05-12T05:31:58.424Z,7.27
2023-05-12T05:34:30.228Z,6.57
2023-05-12T05:37:02.456Z,7.33
2023-05-12T05:39:34.747Z,5.47
2023-05-12T05:42:07.095Z,7.23
2023-05-12T05:44:39.798Z,5.20
2023-05-12T05:47:11.618Z,5.00
2023-05-12T05:49:43.814Z,4.53
2023-05-12T05:52:16.168Z,4.37
2023-05-12T05:54:47.893Z,10.27
2023-05-12T05:57:21.494Z,4.43
2023-05-12T05:59:54.252Z,4.90
2023-05-12T06:02:26.081Z,4.67
2023-05-12T06:04:57.861Z,4.70
2023-05-12T06:07:29.604Z,6.63
2023-05-12T06:10:01.428Z,4.97
2023-05-12T06:12:33.129Z,3.47
2023-05-12T06:15:05.499Z,5.53
2023-05-12T06:17:37.262Z,6.10
2023-05-12T06:20:09.837Z,3.40
2023-05-12T06:22:44.414Z,5.90
2023-05-12T06:25:16.168Z,3.40
2023-05-12T06:27:50.228Z,3.83
2023-05-12T06:30:22.000Z,3.30
2023-05-12T06:32:53.797Z,5.63
2023-05-12T06:35:26.799Z,2.83
2023-05-12T06:37:58.479Z,2.23
2023-05-12T06:40:30.188Z,2.33
2023-05-12T06:43:01.866Z,3.60
2023-05-12T06:45:33.681Z,2.50
2023-05-12T06:48:06.026Z,2.33
2023-05-12T06:50:37.995Z,2.43
2023-05-12T06:53:09.681Z,2.57
2023-05-12T06:55:43.204Z,2.07
2023-05-12T06:58:14.891Z,2.17
2023-05-12T07:00:46.623Z,2.23
2023-05-12T07:03:18.337Z,2.50
2023-05-12T07:05:50.139Z,2.07
2023-05-12T07:08:22.017Z,1.90
2023-05-12T07:10:54.115Z,2.30
2023-05-12T07:13:25.884Z,2.93
2023-05-12T07:15:57.573Z,1.47
2023-05-12T07:18:29.322Z,2.10
2023-05-12T07:21:01.050Z,2.20
2023-05-12T07:23:34.268Z,2.47
2023-05-12T07:26:06.865Z,2.93
2023-05-12T07:28:38.603Z,1.70
2023-05-12T07:31:10.515Z,1.80
2023-05-12T07:33:42.916Z,1.53
2023-05-12T07:36:14.649Z,2.37
2023-05-12T07:38:46.448Z,2.10
2023-05-12T07:41:18.723Z,2.13
2023-05-12T07:43:50.540Z,1.90
2023-05-12T07:46:22.232Z,2.67
2023-05-12T07:48:53.910Z,2.80
2023-05-12T07:51:25.891Z,2.30
2023-05-12T07:53:58.159Z,2.33
2023-05-12T07:56:29.910Z,3.20
2023-05-12T07:59:01.979Z,3.83
2023-05-12T08:01:34.868Z,2.93
2023-05-12T08:04:06.831Z,2.67
2023-05-12T08:06:38.585Z,4.13
2023-05-12T08:09:10.319Z,2.00
2023-05-12T08:11:44.000Z,2.00
2023-05-12T08:14:17.939Z,1.97
2023-05-12T08:16:49.725Z,3.27
2023-05-12T08:19:21.425Z,2.27
2023-05-12T08:21:53.620Z,2.00
2023-05-12T08:24:25.431Z,1.83
2023-05-12T08:26:57.101Z,2.40
2023-05-12T08:29:28.906Z,3.27
2023-05-12T08:32:01.063Z,2.27
2023-05-12T08:34:32.937Z,2.80
2023-05-12T08:37:06.367Z,1.90
2023-05-12T08:39:38.134Z,1.90
2023-05-12T08:42:37.232Z,1.53
2023-05-12T08:45:11.107Z,1.57
2023-05-12T08:47:43.720Z,1.93
2023-05-12T08:50:18.409Z,1.83
2023-05-12T08:52:50.138Z,2.50
2023-05-12T08:55:23.842Z,1.73
2023-05-12T08:57:59.951Z,1.47
2023-05-12T09:00:34.585Z,1.33
2023-05-12T09:03:07.770Z,2.83
2023-05-12T09:05:42.175Z,2.00
2023-05-12T09:08:14.004Z,1.30
2023-05-12T09:10:46.970Z,1.80
2023-05-12T09:13:50.654Z,1.20
2023-05-12T09:16:28.772Z,1.33
2023-05-12T09:19:03.513Z,1.23
2023-05-12T09:21:37.334Z,1.27
2023-05-12T09:24:09.217Z,2.20
2023-05-12T09:26:48.141Z,1.30
2023-05-12T09:29:30.000Z,1.37
2023-05-12T09:32:04.130Z,1.30
2023-05-12T09:34:38.297Z,1.70
2023-05-12T09:37:10.197Z,2.67
2023-05-12T09:39:41.913Z,2.17
2023-05-12T09:42:14.844Z,1.47
2023-05-12T09:44:46.915Z,1.77
2023-05-12T09:47:18.804Z,3.43
2023-05-12T09:49:52.481Z,2.93
2023-05-12T09:52:24.331Z,2.53
2023-05-12T09:54:56.057Z,2.37
2023-05-12T09:57:29.735Z,5.00
2023-05-12T10:00:04.896Z,1.80
2023-05-12T10:02:44.285Z,1.80
2023-05-12T10:05:20.732Z,2.23
2023-05-12T10:07:55.542Z,1.73
2023-05-12T10:10:28.462Z,2.03
2023-05-12T10:13:00.639Z,1.83
2023-05-12T10:15:33.860Z,2.17
2023-05-12T10:18:05.863Z,1.50
2023-05-12T10:20:37.738Z,2.87
2023-05-12T10:23:12.545Z,2.90
2023-05-12T10:25:44.721Z,2.33
2023-05-12T10:28:17.337Z,2.30
2023-05-12T10:30:50.226Z,1.97
2023-05-12T10:33:22.002Z,1.60
2023-05-12T10:35:53.722Z,3.83
2023-05-12T10:38:25.680Z,1.70
2023-05-12T10:41:01.550Z,1.93
2023-05-12T10:43:45.261Z,1.40
2023-05-12T10:46:21.781Z,2.83
2023-05-12T10:49:00.902Z,2.03
2023-05-12T10:51:44.774Z,2.70
2023-05-12T10:54:25.017Z,1.70
2023-05-12T10:57:00.552Z,2.80
2023-05-12T10:59:32.950Z,1.53
2023-05-12T11:05:01.185Z,1.40
2023-05-12T11:07:35.323Z,2.37
2023-05-12T11:10:08.340Z,1.87
2023-05-12T11:12:43.525Z,1.20
2023-05-12T11:15:17.916Z,2.37
2023-05-12T11:17:50.072Z,2.90
2023-05-12T11:20:23.809Z,4.97
2023-05-12T11:22:55.522Z,3.90
2023-05-12T11:25:28.303Z,2.20
2023-05-12T11:28:00.979Z,2.73
2023-05-12T11:30:32.918Z,2.07
2023-05-12T11:33:04.748Z,4.07
2023-05-12T11:35:36.593Z,2.63
2023-05-12T11:38:18.458Z,3.63
2023-05-12T11:40:50.720Z,2.87
2023-05-12T11:43:22.712Z,2.83
2023-05-12T11:45:55.367Z,2.23
2023-05-12T11:48:37.159Z,4.93
2023-05-12T11:51:09.015Z,3.07
2023-05-12T11:53:41.088Z,4.80
2023-05-12T11:56:22.391Z,4.13
2023-05-12T11:58:58.472Z,2.93
2023-05-12T12:01:30.213Z,3.40
2023-05-12T12:04:02.000Z,2.40
2023-05-12T12:06:43.870Z,3.03
2023-05-12T12:09:15.621Z,2.80
2023-05-12T12:11:47.328Z,2.70
2023-05-12T12:14:19.044Z,2.97
2023-05-12T12:16:50.786Z,3.63
2023-05-12T12:19:22.529Z,3.90
2023-05-12T12:21:55.435Z,2.90
2023-05-12T12:24:27.156Z,2.87
2023-05-12T12:26:58.950Z,3.33
2023-05-12T12:29:30.713Z,3.17
2023-05-12T12:32:02.571Z,2.67
2023-05-12T12:34:34.525Z,2.50
2023-05-12T12:37:06.467Z,3.80
2023-05-12T12:39:38.160Z,2.17
2023-05-12T12:42:09.852Z,1.93
2023-05-12T12:44:41.557Z,1.83
2023-05-12T12:47:13.476Z,2.57
2023-05-12T12:49:45.260Z,1.90
2023-05-12T12:52:17.345Z,1.67
2023-05-12T12:54:49.026Z,1.17
2023-05-12T12:57:22.123Z,2.77
2023-05-12T12:59:54.054Z,2.30
2023-05-12T13:02:25.939Z,1.97
2023-05-12T13:04:57.801Z,2.73
2023-05-12T13:07:29.957Z,7.70
2023-05-12T13:10:01.744Z,1.50
2023-05-12T13:12:33.503Z,1.40
2023-05-12T13:15:05.869Z,1.63
2023-05-12T13:17:37.645Z,1.00
2023-05-12T13:20:09.954Z,1.00
2023-05-12T13:22:42.791Z,4.43
2023-05-12T13:25:14.729Z,1.87
2023-05-12T13:27:46.400Z,3.47
2023-05-12T13:30:18.224Z,1.37
2023-05-12T13:32:50.644Z,1.50
2023-05-12T13:35:22.892Z,1.20
2023-05-12T13:37:55.865Z,1.80
2023-05-12T13:40:27.713Z,1.57
2023-05-12T13:42:59.424Z,1.97
2023-05-12T13:45:31.358Z,1.70
2023-05-12T13:48:03.102Z,1.70
2023-05-12T13:50:34.990Z,2.07
2023-05-12T13:53:06.788Z,1.60
2023-05-12T13:55:40.825Z,1.43
2023-05-12T13:58:12.783Z,3.43
2023-05-12T14:00:44.535Z,6.77
2023-05-12T14:03:16.521Z,2.00
2023-05-12T14:05:48.235Z,1.70
2023-05-12T14:08:19.949Z,1.80
2023-05-12T14:10:51.682Z,1.30
2023-05-12T14:13:24.551Z,2.97
2023-05-12T14:15:56.616Z,2.10
2023-05-12T14:18:28.545Z,1.90
2023-05-12T14:21:00.605Z,1.50
2023-05-12T14:23:32.359Z,2.33
2023-05-12T14:26:04.936Z,2.47
2023-05-12T14:28:38.620Z,4.70
2023-05-12T14:31:10.493Z,2.23
2023-05-12T14:33:42.210Z,1.67
2023-05-12T14:36:13.897Z,1.70
2023-05-12T14:38:45.675Z,2.17
2023-05-12T14:41:17.390Z,5.07
2023-05-12T14:43:49.054Z,1.67
2023-05-12T14:46:20.923Z,1.73
2023-05-12T14:48:52.666Z,1.97
2023-05-12T14:51:24.418Z,4.90
2023-05-12T14:53:56.293Z,2.67
2023-05-12T14:56:28.664Z,2.43
2023-05-12T14:59:00.654Z,2.30
2023-05-12T15:01:32.405Z,1.83
2023-05-12T15:04:04.405Z,2.00
2023-05-12T15:06:37.999Z,2.33
2023-05-12T15:09:09.760Z,1.80
2023-05-12T15:11:44.475Z,2.20
2023-05-12T15:14:16.143Z,2.10
2023-05-12T15:16:48.115Z,2.37
2023-05-12T15:19:21.334Z,2.57
2023-05-12T15:21:53.084Z,2.37
2023-05-12T15:24:24.751Z,1.70
2023-05-12T15:26:56.439Z,1.87
2023-05-12T15:29:28.259Z,1.50
2023-05-12T15:31:59.981Z,1.20
2023-05-12T15:34:32.129Z,1.47
2023-05-12T15:37:03.967Z,4.33
2023-05-12T15:39:35.636Z,1.40
2023-05-12T15:42:07.641Z,1.87
2023-05-12T15:44:39.722Z,3.43
2023-05-12T15:47:11.552Z,1.53
2023-05-12T15:49:47.430Z,0.93
2023-05-12T15:52:19.104Z,1.37
2023-05-12T15:54:51.205Z,1.10
2023-05-12T15:57:23.015Z,1.47
2023-05-12T16:00:00.710Z,0.90
2023-05-12T16:02:32.974Z,1.37
2023-05-12T16:05:05.141Z,1.17
2023-05-12T16:07:36.826Z,1.23
2023-05-12T16:10:09.213Z,1.13
2023-05-12T16:12:40.987Z,0.90
2023-05-12T16:15:12.884Z,1.60
2023-05-12T16:17:44.665Z,1.07
2023-05-12T16:20:16.362Z,1.00
2023-05-12T16:22:48.676Z,1.30
2023-05-12T16:25:20.625Z,1.17
2023-05-12T16:27:53.118Z,1.77
2023-05-12T16:30:25.045Z,3.33
2023-05-12T16:32:56.756Z,1.20
2023-05-12T16:35:28.791Z,1.40
2023-05-12T16:38:00.557Z,1.00
2023-05-12T16:40:32.367Z,1.23
2023-05-12T16:43:04.090Z,1.63
2023-05-12T16:45:35.783Z,1.90
2023-05-12T16:48:07.482Z,1.10
2023-05-12T16:50:39.175Z,1.00
2023-05-12T16:53:10.916Z,3.40
2023-05-12T16:55:42.906Z,0.90
2023-05-12T16:58:14.906Z,0.93
2023-05-12T17:00:46.712Z,0.83
2023-05-12T17:03:18.606Z,0.97
2023-05-12T17:05:50.700Z,0.70
2023-05-12T17:08:22.436Z,0.60
2023-05-12T17:10:54.261Z,0.80
2023-05-12T17:13:25.972Z,2.40
2023-05-12T17:15:57.709Z,0.70
2023-05-12T17:18:29.647Z,0.80
2023-05-12T17:21:01.375Z,0.60
2023-05-12T17:23:33.121Z,0.60
2023-05-12T17:26:05.044Z,0.97
2023-05-12T17:28:36.765Z,0.70
2023-05-12T17:31:08.825Z,1.17
2023-05-12T17:33:40.607Z,0.47
2023-05-12T17:36:13.336Z,0.47
2023-05-12T17:38:45.232Z,0.93
2023-05-12T17:41:16.992Z,0.37
2023-05-12T17:43:48.708Z,4.63
2023-05-12T17:46:20.542Z,0.40
2023-05-12T17:48:52.264Z,1.90
2023-05-12T17:51:23.961Z,0.97
2023-05-12T17:53:55.657Z,0.93
2023-05-12T17:56:27.590Z,1.10
2023-05-12T17:58:59.261Z,0.70
2023-05-12T18:01:31.025Z,3.23
2023-05-12T18:04:02.887Z,0.60
2023-05-12T18:06:34.616Z,0.53
2023-05-12T18:09:06.818Z,0.70
2023-05-12T18:11:38.664Z,0.93
2023-05-12T18:14:10.844Z,1.37
2023-05-12T18:16:42.905Z,0.60
2023-05-12T18:19:15.178Z,0.80
2023-05-12T18:21:46.971Z,1.67
2023-05-12T18:24:18.769Z,1.37
2023-05-12T18:26:50.437Z,0.60
2023-05-12T18:29:22.165Z,0.80
2023-05-12T18:31:53.918Z,0.97
2023-05-12T18:34:25.759Z,1.60
2023-05-12T18:40:54.269Z,2.27
2023-05-12T18:43:26.232Z,0.83
2023-05-12T18:45:58.038Z,2.47
2023-05-12T18:48:30.219Z,1.17
2023-05-12T18:51:01.959Z,0.80
2023-05-12T18:53:33.889Z,2.20
2023-05-12T18:56:06.001Z,1.30
2023-05-12T18:58:38.729Z,3.00
2023-05-12T19:01:10.618Z,1.53
2023-05-12T19:03:42.333Z,3.17
2023-05-12T19:06:14.087Z,1.10
2023-05-12T19:08:45.877Z,1.23
2023-05-12T19:11:17.705Z,3.43
2023-05-12T19:13:50.681Z,1.93
2023-05-12T19:16:23.778Z,1.00
2023-05-12T19:18:55.849Z,1.17
2023-05-12T19:21:28.279Z,1.23
2023-05-12T19:24:01.109Z,1.10
2023-05-12T19:26:32.865Z,1.70
2023-05-12T19:29:04.697Z,2.67
2023-05-12T19:31:36.769Z,2.73
2023-05-12T19:34:08.597Z,3.13
2023-05-12T19:36:40.392Z,2.50
2023-05-12T19:39:12.123Z,1.50
2023-05-12T19:41:44.203Z,4.50
2023-05-12T19:44:16.032Z,8.67
2023-05-12T19:46:48.099Z,1.63
2023-05-12T19:49:19.844Z,1.50
2023-05-12T19:51:51.848Z,1.30
2023-05-12T19:54:23.593Z,1.23
2023-05-12T19:56:55.288Z,3.47
2023-05-12T19:59:27.140Z,1.40
2023-05-12T20:01:58.884Z,1.57
2023-05-12T20:04:30.686Z,2.20
2023-05-12T20:07:02.386Z,2.77
2023-05-12T20:09:34.103Z,1.60
2023-05-12T20:12:07.956Z,4.40
2023-05-12T20:14:39.858Z,1.43
2023-05-12T20:17:12.566Z,1.50
2023-05-12T20:19:44.448Z,1.27
2023-05-12T20:22:16.717Z,3.07
2023-05-12T20:24:48.469Z,1.70
2023-05-12T20:27:20.321Z,1.90
2023-05-12T20:29:52.257Z,3.53
2023-05-12T20:32:24.260Z,5.37
2023-05-12T20:34:56.068Z,2.90
2023-05-12T20:37:28.011Z,7.83
2023-05-12T20:39:59.984Z,3.00
2023-05-12T20:42:31.775Z,5.43
2023-05-12T20:45:03.656Z,2.27
2023-05-12T20:47:36.654Z,2.57
2023-05-12T20:50:09.737Z,3.20
2023-05-12T20:52:42.369Z,3.27
2023-05-12T20:55:15.124Z,3.90
2023-05-12T20:57:46.884Z,6.53
2023-05-12T21:00:18.844Z,4.00
2023-05-12T21:02:52.280Z,5.47
2023-05-12T21:05:24.147Z,10.17
2023-05-12T21:07:56.081Z,7.63
2023-05-12T21:10:27.808Z,4.47
2023-05-12T21:12:59.533Z,6.57
2023-05-12T21:15:31.262Z,3.70
2023-05-12T21:18:03.099Z,3.00
2023-05-12T21:20:35.042Z,2.60
2023-05-12T21:23:11.356Z,3.10
2023-05-12T21:25:43.061Z,3.30
2023-05-12T21:28:15.483Z,3.00
2023-05-12T21:30:47.418Z,2.83
2023-05-12T21:33:19.143Z,3.90
2023-05-12T21:35:50.867Z,3.77
2023-05-12T21:38:22.707Z,5.87
2023-05-12T21:40:56.287Z,5.47
2023-05-12T21:43:28.068Z,4.30
2023-05-12T21:46:03.726Z,4.63
2023-05-12T21:48:35.586Z,3.00
2023-05-12T21:51:07.353Z,2.60
2023-05-12T21:53:39.078Z,2.47
2023-05-12T21:56:10.919Z,5.50
2023-05-12T21:58:42.851Z,2.00
2023-05-12T22:01:15.700Z,3.17
2023-05-12T22:03:47.557Z,3.83
2023-05-12T22:06:19.457Z,2.50
2023-05-12T22:08:51.286Z,2.80
2023-05-12T22:11:24.175Z,1.60
2023-05-12T22:13:55.903Z,4.60
2023-05-12T22:16:40.776Z,3.43
2023-05-12T22:19:13.879Z,2.67
2023-05-12T22:21:45.739Z,3.60
2023-05-12T22:24:17.608Z,3.87
2023-05-12T22:26:49.335Z,6.10
2023-05-12T22:29:21.155Z,2.47
2023-05-12T22:31:52.886Z,1.70
2023-05-12T22:34:24.670Z,1.77
2023-05-12T22:36:56.551Z,3.97
2023-05-12T22:39:28.322Z,2.20
2023-05-12T22:42:00.392Z,2.30
2023-05-12T22:44:32.153Z,1.87
2023-05-12T22:47:04.529Z,11.67
2023-05-12T22:49:36.338Z,2.13
2023-05-12T22:52:08.443Z,4.33
2023-05-12T22:54:40.284Z,1.90
2023-05-12T22:57:12.148Z,2.27
2023-05-12T22:59:43.858Z,3.70
2023-05-12T23:02:16.384Z,1.90
2023-05-12T23:04:48.331Z,2.63
2023-05-12T23:07:20.133Z,2.07
2023-05-12T23:09:51.870Z,2.70
2023-05-12T23:12:23.666Z,1.77
2023-05-12T23:14:55.396Z,4.30
2023-05-12T23:17:27.100Z,3.20
2023-05-12T23:19:58.911Z,3.13
2023-05-12T23:22:30.618Z,3.30
2023-05-12T23:25:02.389Z,2.80
2023-05-12T23:27:35.282Z,3.13
2023-05-12T23:30:07.957Z,2.33
2023-05-12T23:32:39.850Z,2.40
2023-05-12T23:35:11.971Z,3.03
2023-05-12T23:37:43.770Z,3.63
2023-05-12T23:40:15.519Z,3.73
2023-05-12T23:42:47.243Z,2.47
2023-05-12T23:45:18.949Z,2.00
2023-05-12T23:47:50.757Z,2.00
2023-05-12T23:50:23.017Z,1.77
2023-05-12T23:52:55.075Z,2.20
2023-05-12T23:55:26.756Z,3.43
2023-05-12T23:57:58.482Z,2.77
